createdAt,value
2018-04-12T00:02:28.733Z,97714.36
2018-04-12T00:04:58.010Z,97710.38
2018-04-12T00:07:26.778Z,97701.72
2018-04-12T00:09:56.109Z,97708.94
2018-04-12T00:12:24.462Z,97702.42
2018-04-12T00:14:53.419Z,97698.15
2018-04-12T00:17:22.164Z,97697.02
2018-04-12T00:19:51.350Z,97695.11
2018-04-12T00:22:19.744Z,97689.92
2018-04-12T00:24:48.417Z,97684.63
2018-04-12T00:27:18.100Z,97688.45
2018-04-12T00:29:46.768Z,97684.93
2018-04-12T00:32:17.720Z,97683.27
2018-04-12T00:34:46.849Z,97675.13
2018-04-12T00:37:15.540Z,97675.69
2018-04-12T00:39:44.485Z,97677.06
2018-04-12T00:42:13.026Z,97683.05
2018-04-12T00:44:42.230Z,97677.61
2018-04-12T00:47:10.588Z,97676.22
2018-04-12T00:49:39.822Z,97672.30
2018-04-12T00:52:08.258Z,97674.02
2018-04-12T00:54:36.645Z,97667.45
2018-04-12T00:57:06.413Z,97668.80
2018-04-12T00:59:35.648Z,97661.04
2018-04-12T01:02:04.704Z,97668.80
2018-04-12T01:04:33.078Z,97666.89
2018-04-12T01:07:02.101Z,97664.23
2018-04-12T01:09:31.266Z,97668.53
2018-04-12T01:12:00.207Z,97668.68
2018-04-12T01:14:28.993Z,97656.62
2018-04-12T01:16:57.385Z,97660.03
2018-04-12T01:19:25.771Z,97662.50
2018-04-12T01:21:55.005Z,97655.21
2018-04-12T01:24:24.222Z,97654.07
2018-04-12T01:26:52.619Z,97646.91
2018-04-12T01:29:20.995Z,97655.00
2018-04-12T01:31:49.403Z,97640.80
2018-04-12T01:34:18.695Z,97637.16
2018-04-12T01:36:47.616Z,97637.45
2018-04-12T01:39:15.968Z,97632.48
2018-04-12T01:41:46.043Z,97625.13
2018-04-12T01:44:14.372Z,97626.84
2018-04-12T01:46:44.585Z,97623.55
2018-04-12T01:49:13.757Z,97627.86
2018-04-12T01:51:42.264Z,97630.22
2018-04-12T01:54:11.029Z,97619.75
2018-04-12T01:56:39.780Z,97618.95
2018-04-12T01:59:08.870Z,97621.65
2018-04-12T02:01:37.235Z,97612.62
2018-04-12T02:04:05.643Z,97613.91
2018-04-12T02:06:34.984Z,97606.06
2018-04-12T02:09:04.482Z,97601.59
2018-04-12T02:11:34.566Z,97594.16
2018-04-12T02:14:03.185Z,97592.19
2018-04-12T02:16:31.790Z,97584.31
2018-04-12T02:19:01.074Z,97583.20
2018-04-12T02:21:29.459Z,97583.47
2018-04-12T02:23:57.892Z,97580.18
2018-04-12T02:26:27.066Z,97579.64
2018-04-12T02:28:55.431Z,97571.39
2018-04-12T02:31:23.916Z,97564.91
2018-04-12T02:33:53.250Z,97566.84
2018-04-12T02:36:23.417Z,97561.16
2018-04-12T02:38:51.788Z,97564.79
2018-04-12T02:41:20.731Z,97563.16
2018-04-12T02:43:49.089Z,97557.56
2018-04-12T02:46:18.439Z,97556.53
2018-04-12T02:48:47.110Z,97550.35
2018-04-12T02:51:15.784Z,97554.33
2018-04-12T02:53:44.113Z,97550.81
2018-04-12T02:56:12.785Z,97538.64
2018-04-12T02:58:41.588Z,97545.00
2018-04-12T03:01:10.070Z,97536.98
2018-04-12T03:03:39.244Z,97542.89
2018-04-12T03:06:08.468Z,97542.44
2018-04-12T03:08:36.849Z,97535.39
2018-04-12T03:11:06.743Z,97538.38
2018-04-12T03:13:35.079Z,97534.74
2018-04-12T03:16:03.713Z,97537.25
2018-04-12T03:18:32.993Z,97526.67
2018-04-12T03:21:02.416Z,97521.89
2018-04-12T03:23:31.773Z,97529.25
2018-04-12T03:26:01.936Z,97526.94
2018-04-12T03:28:31.359Z,97533.75
2018-04-12T03:30:59.689Z,97529.00
2018-04-12T03:33:28.872Z,97532.88
2018-04-12T03:35:58.265Z,97527.75
2018-04-12T03:38:26.697Z,97525.47
2018-04-12T03:40:55.054Z,97520.88
2018-04-12T03:43:23.424Z,97521.72
2018-04-12T03:45:51.780Z,97522.70
2018-04-12T03:48:20.188Z,97516.98
2018-04-12T03:50:49.693Z,97511.48
2018-04-12T03:53:18.916Z,97514.38
2018-04-12T03:55:48.536Z,97504.34
2018-04-12T03:58:17.691Z,97507.72
2018-04-12T04:00:47.186Z,97508.95
2018-04-12T04:03:16.956Z,97505.97
2018-04-12T04:05:46.461Z,97506.89
2018-04-12T04:08:15.683Z,97506.58
2018-04-12T04:10:44.037Z,97508.19
2018-04-12T04:13:13.294Z,97500.79
2018-04-12T04:15:54.024Z,97499.48
2018-04-12T04:18:34.760Z,97497.52
2018-04-12T04:21:19.738Z,97497.51
2018-04-12T04:23:48.957Z,97508.48
2018-04-12T04:26:18.473Z,97498.94
2018-04-12T04:28:46.973Z,97499.45
2018-04-12T04:31:15.318Z,97494.22
2018-04-12T04:33:43.730Z,97499.75
2018-04-12T04:36:13.162Z,97505.67
2018-04-12T04:38:42.624Z,97506.18
2018-04-12T04:41:10.993Z,97499.78
2018-04-12T04:43:39.397Z,97505.81
2018-04-12T04:46:08.701Z,97494.97
2018-04-12T04:48:38.429Z,97495.45
2018-04-12T04:51:07.770Z,97488.28
2018-04-12T04:53:37.050Z,97488.85
2018-04-12T04:56:05.985Z,97482.86
2018-04-12T04:58:35.064Z,97484.53
2018-04-12T05:01:03.436Z,97490.18
2018-04-12T05:03:32.691Z,97490.98
2018-04-12T05:06:01.051Z,97484.53
2018-04-12T05:08:29.466Z,97488.36
2018-04-12T05:10:58.677Z,97485.66
2018-04-12T05:13:27.039Z,97495.06
2018-04-12T05:15:55.898Z,97490.91
2018-04-12T05:18:24.980Z,97490.07
2018-04-12T05:20:54.534Z,97483.91
2018-04-12T05:23:24.828Z,97487.27
2018-04-12T05:25:53.221Z,97485.03
2018-04-12T05:28:21.858Z,97480.89
2018-04-12T05:30:51.858Z,97486.36
2018-04-12T05:33:20.809Z,97489.97
2018-04-12T05:35:50.098Z,97494.01
2018-04-12T05:38:19.497Z,97487.95
2018-04-12T05:40:47.879Z,97482.42
2018-04-12T05:43:17.536Z,97481.15
2018-04-12T05:45:46.626Z,97480.91
2018-04-12T05:48:15.375Z,97474.93
2018-04-12T05:50:43.807Z,97475.24
2018-04-12T05:53:12.177Z,97468.37
2018-04-12T05:55:40.512Z,97469.06
2018-04-12T05:58:09.179Z,97455.83
2018-04-12T06:00:37.549Z,97455.50
2018-04-12T06:03:05.911Z,97462.08
2018-04-12T06:05:34.859Z,97467.69
2018-04-12T06:08:04.579Z,97468.16
2018-04-12T06:10:32.982Z,97475.94
2018-04-12T06:13:02.641Z,97475.59
2018-04-12T06:15:30.974Z,97476.95
2018-04-12T06:18:00.289Z,97474.58
2018-04-12T06:20:29.718Z,97468.47
2018-04-12T06:22:58.113Z,97470.52
2018-04-12T06:25:26.450Z,97471.92
2018-04-12T06:27:54.804Z,97470.84
2018-04-12T06:30:24.231Z,97469.02
2018-04-12T06:32:52.631Z,97457.65
2018-04-12T06:35:21.189Z,97457.17
2018-04-12T06:37:49.583Z,97447.67
2018-04-12T06:40:18.067Z,97449.50
2018-04-12T06:42:46.482Z,97447.02
2018-04-12T06:45:15.214Z,97444.91
2018-04-12T06:47:43.562Z,97450.41
2018-04-12T06:50:11.964Z,97445.30
2018-04-12T06:52:40.311Z,97436.62
2018-04-12T06:55:08.957Z,97441.66
2018-04-12T06:57:39.257Z,97444.98
2018-04-12T07:00:08.868Z,97433.84
2018-04-12T07:02:37.457Z,97432.47
2018-04-12T07:05:06.438Z,97437.23
2018-04-12T07:07:35.290Z,97433.77
2018-04-12T07:10:03.896Z,97430.13
2018-04-12T07:12:33.238Z,97436.44
2018-04-12T07:15:02.508Z,97440.95
2018-04-12T07:17:30.948Z,97442.22
2018-04-12T07:20:00.058Z,97438.55
2018-04-12T07:22:28.516Z,97444.29
2018-04-12T07:24:57.005Z,97433.89
2018-04-12T07:27:27.958Z,97426.38
2018-04-12T07:29:57.865Z,97420.53
2018-04-12T07:32:26.280Z,97416.88
2018-04-12T07:34:54.845Z,97417.16
2018-04-12T07:37:23.256Z,97421.14
2018-04-12T07:39:51.925Z,97418.32
2018-04-12T07:42:20.325Z,97412.86
2018-04-12T07:44:48.667Z,97407.61
2018-04-12T07:47:17.032Z,97401.86
2018-04-12T07:49:48.123Z,97401.08
2018-04-12T07:52:17.394Z,97403.84
2018-04-12T07:54:45.732Z,97399.80
2018-04-12T07:57:14.948Z,97395.32
2018-04-12T07:59:43.946Z,97392.20
2018-04-12T08:02:13.873Z,97392.94
2018-04-12T08:04:42.272Z,97392.75
2018-04-12T08:07:12.491Z,97391.61
2018-04-12T08:09:42.409Z,97397.73
2018-04-12T08:12:11.562Z,97398.14
2018-04-12T08:14:40.870Z,97390.53
2018-04-12T08:17:09.534Z,97387.27
2018-04-12T08:19:39.582Z,97387.22
2018-04-12T08:22:08.578Z,97389.00
2018-04-12T08:24:38.584Z,97387.40
2018-04-12T08:27:07.251Z,97384.95
2018-04-12T08:29:35.637Z,97386.78
2018-04-12T08:32:04.294Z,97385.97
2018-04-12T08:34:33.693Z,97383.81
2018-04-12T08:37:02.436Z,97381.78
2018-04-12T08:39:30.787Z,97376.42
2018-04-12T08:41:59.125Z,97376.12
2018-04-12T08:44:27.858Z,97368.66
2018-04-12T08:46:57.033Z,97364.84
2018-04-12T08:49:25.978Z,97372.63
2018-04-12T08:51:55.040Z,97367.12
2018-04-12T08:54:23.775Z,97372.30
2018-04-12T08:56:52.132Z,97372.52
2018-04-12T08:59:20.544Z,97382.30
2018-04-12T09:01:49.784Z,97386.53
2018-04-12T09:04:18.147Z,97384.58
2018-04-12T09:06:46.504Z,97393.02
2018-04-12T09:09:17.386Z,97401.25
2018-04-12T09:11:45.717Z,97409.54
2018-04-12T09:14:14.136Z,97409.84
2018-04-12T09:16:42.754Z,97405.89
2018-04-12T09:19:13.138Z,97409.99
2018-04-12T09:21:41.478Z,97419.06
2018-04-12T09:24:10.634Z,97407.02
2018-04-12T09:26:39.773Z,97409.28
2018-04-12T09:29:08.819Z,97412.72
2018-04-12T09:31:37.307Z,97410.56
2018-04-12T09:34:06.474Z,97412.75
2018-04-12T09:36:35.104Z,97402.72
2018-04-12T09:39:04.521Z,97400.20
2018-04-12T09:41:34.067Z,97399.78
2018-04-12T09:44:02.705Z,97396.30
2018-04-12T09:46:31.802Z,97395.78
2018-04-12T09:49:00.991Z,97382.69
2018-04-12T09:51:31.140Z,97375.22
2018-04-12T09:54:00.743Z,97376.27
2018-04-12T09:56:30.432Z,97389.39
2018-04-12T09:58:59.805Z,97395.63
2018-04-12T10:01:28.570Z,97412.00
2018-04-12T10:03:58.664Z,97422.66
2018-04-12T10:09:33.185Z,97420.06
2018-04-12T10:12:01.521Z,97414.16
2018-04-12T10:14:29.875Z,97406.89
2018-04-12T10:16:58.216Z,97407.94
2018-04-12T10:19:28.842Z,97406.29
2018-04-12T10:21:58.438Z,97401.97
2018-04-12T10:24:27.749Z,97407.69
2018-04-12T10:26:56.121Z,97413.38
2018-04-12T10:29:25.703Z,97412.31
2018-04-12T10:31:54.021Z,97409.01
2018-04-12T10:34:22.391Z,97412.73
2018-04-12T10:36:52.139Z,97413.70
2018-04-12T10:39:20.605Z,97417.91
2018-04-12T10:41:49.315Z,97407.63
2018-04-12T10:44:18.570Z,97410.00
2018-04-12T10:46:46.992Z,97406.36
2018-04-12T10:49:15.789Z,97395.09
2018-04-12T10:51:44.871Z,97389.67
2018-04-12T10:54:14.893Z,97394.16
2018-04-12T10:56:44.055Z,97398.70
2018-04-12T10:59:13.851Z,97396.33
2018-04-12T11:01:42.251Z,97408.91
2018-04-12T11:04:10.719Z,97396.55
2018-04-12T11:06:39.062Z,97403.00
2018-04-12T11:09:07.463Z,97398.76
2018-04-12T11:11:35.836Z,97398.64
2018-04-12T11:14:04.207Z,97383.12
2018-04-12T11:16:33.444Z,97389.45
2018-04-12T11:19:01.789Z,97389.14
2018-04-12T11:21:30.795Z,97389.16
2018-04-12T11:23:59.931Z,97388.96
2018-04-12T11:26:28.286Z,97395.17
2018-04-12T11:28:57.217Z,97392.02
2018-04-12T11:31:26.537Z,97393.75
2018-04-12T11:33:54.892Z,97393.12
2018-04-12T11:36:25.843Z,97388.00
2018-04-12T11:38:55.121Z,97391.33
2018-04-12T11:41:24.298Z,97387.88
2018-04-12T11:43:53.580Z,97398.47
2018-04-12T11:46:22.553Z,97394.56
2018-04-12T11:48:50.950Z,97380.33
2018-04-12T11:51:19.847Z,97385.38
2018-04-12T11:53:48.255Z,97384.91
2018-04-12T11:56:16.645Z,97377.62
2018-04-12T11:58:47.071Z,97369.16
2018-04-12T12:01:16.934Z,97370.98
2018-04-12T12:03:45.606Z,97362.89
2018-04-12T12:06:14.521Z,97355.97
2018-04-12T12:08:42.917Z,97365.47
2018-04-12T12:11:12.591Z,97377.65
2018-04-12T12:13:42.700Z,97370.39
2018-04-12T12:16:11.093Z,97358.49
2018-04-12T12:18:40.382Z,97359.86
2018-04-12T12:21:11.105Z,97360.81
2018-04-12T12:23:39.727Z,97355.81
2018-04-12T12:26:08.989Z,97361.70
2018-04-12T12:28:37.385Z,97370.91
2018-04-12T12:31:06.656Z,97372.75
2018-04-12T12:33:36.199Z,97371.80
2018-04-12T12:36:05.931Z,97369.09
2018-04-12T12:38:35.956Z,97369.36
2018-04-12T12:41:04.332Z,97366.64
2018-04-12T12:43:33.739Z,97378.03
2018-04-12T12:46:03.003Z,97379.09
2018-04-12T12:48:32.299Z,97382.05
2018-04-12T12:51:02.359Z,97376.22
2018-04-12T12:53:31.706Z,97379.80
2018-04-12T12:56:01.588Z,97383.27
2018-04-12T12:58:30.136Z,97384.89
2018-04-12T13:00:58.461Z,97389.69
2018-04-12T13:03:27.775Z,97410.92
2018-04-12T13:05:56.225Z,97399.55
2018-04-12T13:08:25.517Z,97409.44
2018-04-12T13:10:53.976Z,97404.52
2018-04-12T13:13:23.431Z,97402.39
2018-04-12T13:15:51.757Z,97413.92
2018-04-12T13:18:20.205Z,97402.87
2018-04-12T13:20:49.529Z,97416.83
2018-04-12T13:23:17.913Z,97420.02
2018-04-12T13:25:46.339Z,97430.43
2018-04-12T13:28:14.916Z,97425.37
2018-04-12T13:30:44.449Z,97430.81
2018-04-12T13:33:13.683Z,97422.03
2018-04-12T13:35:42.757Z,97418.15
2018-04-12T13:38:11.965Z,97422.19
2018-04-12T13:40:40.353Z,97423.69
2018-04-12T13:43:08.690Z,97418.81
2018-04-12T13:45:39.029Z,97426.44
2018-04-12T13:48:07.464Z,97422.05
2018-04-12T13:50:37.477Z,97427.51
2018-04-12T13:53:05.789Z,97435.55
2018-04-12T13:55:35.706Z,97441.60
2018-04-12T13:58:04.452Z,97451.89
2018-04-12T14:00:32.825Z,97455.25
2018-04-12T14:03:01.214Z,97451.83
2018-04-12T14:05:29.636Z,97461.53
2018-04-12T14:07:58.502Z,97467.98
2018-04-12T14:10:26.901Z,97464.59
2018-04-12T14:12:55.661Z,97469.86
2018-04-12T14:15:24.810Z,97471.91
2018-04-12T14:17:53.149Z,97463.55
2018-04-12T14:20:26.011Z,97458.08
2018-04-12T14:22:58.005Z,97466.66
2018-04-12T14:25:27.935Z,97469.97
2018-04-12T14:27:57.086Z,97474.40
2018-04-12T14:30:26.212Z,97471.66
2018-04-12T14:32:56.457Z,97469.39
2018-04-12T14:35:26.918Z,97473.50
2018-04-12T14:37:55.999Z,97465.84
2018-04-12T14:40:25.225Z,97480.87
2018-04-12T14:42:54.229Z,97480.77
2018-04-12T14:45:23.829Z,97473.22
2018-04-12T14:47:54.231Z,97476.72
2018-04-12T14:50:22.649Z,97474.56
2018-04-12T14:52:51.213Z,97468.55
2018-04-12T14:55:20.567Z,97472.27
2018-04-12T14:57:48.948Z,97470.14
2018-04-12T15:00:17.985Z,97474.17
2018-04-12T15:02:47.564Z,97472.00
2018-04-12T15:05:16.600Z,97466.05
2018-04-12T15:07:46.047Z,97470.59
2018-04-12T15:10:14.400Z,97468.84
2018-04-12T15:12:44.127Z,97460.21
2018-04-12T15:15:13.351Z,97475.89
2018-04-12T15:17:41.683Z,97471.44
2018-04-12T15:20:10.117Z,97471.61
2018-04-12T15:22:39.286Z,97476.12
2018-04-12T15:25:07.731Z,97470.39
2018-04-12T15:27:36.095Z,97467.81
2018-04-12T15:30:05.334Z,97467.88
2018-04-12T15:32:35.070Z,97466.92
2018-04-12T15:35:03.632Z,97461.98
2018-04-12T15:37:32.240Z,97464.80
2018-04-12T15:40:02.236Z,97464.45
2018-04-12T15:42:31.726Z,97466.69
2018-04-12T15:45:00.384Z,97469.31
2018-04-12T15:47:29.590Z,97465.44
2018-04-12T15:49:59.094Z,97469.69
2018-04-12T15:52:28.352Z,97466.78
2018-04-12T15:54:57.738Z,97474.68
2018-04-12T15:57:26.470Z,97475.34
2018-04-12T15:59:54.871Z,97470.08
2018-04-12T16:02:23.823Z,97469.23
2018-04-12T16:04:52.236Z,97473.02
2018-04-12T16:07:20.596Z,97474.45
2018-04-12T16:09:50.626Z,97481.67
2018-04-12T16:12:19.508Z,97486.36
2018-04-12T16:14:47.911Z,97495.99
2018-04-12T16:17:17.235Z,97487.81
2018-04-12T16:19:45.825Z,97491.24
2018-04-12T16:22:15.100Z,97480.79
2018-04-12T16:24:44.329Z,97477.81
2018-04-12T16:27:14.393Z,97484.80
2018-04-12T16:29:42.772Z,97482.93
2018-04-12T16:32:11.978Z,97474.81
2018-04-12T16:34:41.110Z,97474.19
2018-04-12T16:37:10.047Z,97469.40
2018-04-12T16:39:38.919Z,97463.74
2018-04-12T16:42:09.209Z,97472.89
2018-04-12T16:44:37.931Z,97473.59
2018-04-12T16:47:07.664Z,97479.70
2018-04-12T16:49:36.816Z,97474.86
2018-04-12T16:52:05.877Z,97473.29
2018-04-12T16:54:35.136Z,97472.48
2018-04-12T16:57:04.905Z,97475.14
2018-04-12T16:59:34.796Z,97475.40
2018-04-12T17:02:04.333Z,97482.95
2018-04-12T17:04:33.351Z,97486.28
2018-04-12T17:07:03.474Z,97490.11
2018-04-12T17:09:32.576Z,97494.53
2018-04-12T17:12:02.693Z,97496.50
2018-04-12T17:14:31.374Z,97501.39
2018-04-12T17:17:00.670Z,97500.85
2018-04-12T17:19:29.962Z,97509.07
2018-04-12T17:21:59.141Z,97508.99
2018-04-12T17:24:27.748Z,97515.85
2018-04-12T17:26:56.181Z,97519.06
2018-04-12T17:29:25.480Z,97525.43
2018-04-12T17:31:54.046Z,97521.14
2018-04-12T17:34:22.933Z,97523.87
2018-04-12T17:36:52.012Z,97520.08
2018-04-12T17:39:21.229Z,97529.11
2018-04-12T17:41:49.702Z,97529.41
2018-04-12T17:44:19.821Z,97527.33
2018-04-12T17:46:48.192Z,97530.86
2018-04-12T17:49:18.138Z,97534.20
2018-04-12T17:51:47.986Z,97534.65
2018-04-12T17:54:16.827Z,97540.00
2018-04-12T17:56:46.464Z,97544.52
2018-04-12T17:59:15.755Z,97544.89
2018-04-12T18:01:44.925Z,97551.43
2018-04-12T18:04:13.301Z,97549.79
2018-04-12T18:06:42.184Z,97545.32
2018-04-12T18:09:11.104Z,97541.22
2018-04-12T18:11:39.892Z,97543.19
2018-04-12T18:14:08.446Z,97548.57
2018-04-12T18:16:38.547Z,97547.44
2018-04-12T18:19:08.195Z,97544.10
2018-04-12T18:21:38.153Z,97542.95
2018-04-12T18:24:07.439Z,97545.30
2018-04-12T18:26:36.750Z,97539.23
2018-04-12T18:29:07.051Z,97540.61
2018-04-12T18:31:35.516Z,97547.67
2018-04-12T18:34:04.693Z,97555.45
2018-04-12T18:36:34.310Z,97556.73
2018-04-12T18:39:02.921Z,97560.56
2018-04-12T18:41:31.748Z,97561.76
2018-04-12T18:44:01.853Z,97564.39
2018-04-12T18:46:31.296Z,97568.61
2018-04-12T18:49:00.465Z,97568.02
2018-04-12T18:51:29.097Z,97575.16
2018-04-12T18:53:59.744Z,97575.05
2018-04-12T18:56:29.314Z,97572.70
2018-04-12T18:58:59.306Z,97573.97
2018-04-12T19:01:30.392Z,97570.99
2018-04-12T19:03:58.994Z,97567.97
2018-04-12T19:06:27.406Z,97572.17
2018-04-12T19:08:55.773Z,97575.84
2018-04-12T19:11:24.124Z,97575.58
2018-04-12T19:13:54.077Z,97575.88
2018-04-12T19:16:24.040Z,97569.56
2018-04-12T19:18:52.360Z,97568.92
2018-04-12T19:21:20.729Z,97573.75
2018-04-12T19:23:49.285Z,97578.31
2018-04-12T19:26:17.769Z,97579.05
2018-04-12T19:28:47.559Z,97585.23
2018-04-12T19:31:16.482Z,97574.44
2018-04-12T19:33:44.807Z,97575.93
2018-04-12T19:36:13.432Z,97577.77
2018-04-12T19:38:42.520Z,97578.42
2018-04-12T19:41:11.152Z,97577.66
2018-04-12T19:43:39.741Z,97586.14
2018-04-12T19:46:09.030Z,97588.61
2018-04-12T19:48:38.085Z,97591.36
2018-04-12T19:51:07.259Z,97597.06
2018-04-12T19:53:36.598Z,97599.30
2018-04-12T19:56:05.418Z,97593.23
2018-04-12T19:58:35.498Z,97602.34
2018-04-12T20:01:04.663Z,97601.73
2018-04-12T20:03:33.154Z,97597.30
2018-04-12T20:06:01.510Z,97589.89
2018-04-12T20:08:30.551Z,97585.14
2018-04-12T20:11:00.482Z,97593.34
2018-04-12T20:13:28.841Z,97593.76
2018-04-12T20:15:57.257Z,97592.35
2018-04-12T20:18:26.975Z,97592.26
2018-04-12T20:20:55.588Z,97599.59
2018-04-12T20:23:25.210Z,97606.27
2018-04-12T20:25:54.316Z,97603.42
2018-04-12T20:28:24.474Z,97607.70
2018-04-12T20:30:53.250Z,97603.30
2018-04-12T20:33:21.602Z,97605.95
2018-04-12T20:35:49.991Z,97596.77
2018-04-12T20:38:20.563Z,97595.67
2018-04-12T20:40:48.986Z,97584.84
2018-04-12T20:43:17.314Z,97585.53
2018-04-12T20:45:45.716Z,97586.94
2018-04-12T20:48:14.621Z,97586.20
2018-04-12T20:50:44.510Z,97585.57
2018-04-12T20:53:16.467Z,97589.95
2018-04-12T20:55:45.172Z,97590.69
2018-04-12T20:58:15.477Z,97593.13
2018-04-12T21:00:44.933Z,97591.37
2018-04-12T21:03:13.898Z,97588.77
2018-04-12T21:05:43.105Z,97589.61
2018-04-12T21:08:11.460Z,97594.14
2018-04-12T21:10:41.538Z,97597.72
2018-04-12T21:13:11.547Z,97596.86
2018-04-12T21:15:40.631Z,97594.69
2018-04-12T21:18:09.881Z,97590.91
2018-04-12T21:20:38.241Z,97596.12
2018-04-12T21:23:08.051Z,97599.77
2018-04-12T21:25:36.466Z,97593.81
2018-04-12T21:28:04.886Z,97591.46
2018-04-12T21:30:33.490Z,97581.31
2018-04-12T21:33:01.923Z,97581.58
2018-04-12T21:35:31.268Z,97578.92
2018-04-12T21:37:59.596Z,97580.91
2018-04-12T21:40:29.919Z,97578.09
2018-04-12T21:42:58.291Z,97583.22
2018-04-12T21:45:27.987Z,97575.03
2018-04-12T21:47:57.477Z,97572.39
2018-04-12T21:50:25.970Z,97571.32
2018-04-12T21:52:54.309Z,97574.59
2018-04-12T21:55:23.755Z,97574.91
2018-04-12T21:57:53.272Z,97567.34
2018-04-12T22:00:21.645Z,97570.13
2018-04-12T22:02:51.715Z,97574.94
2018-04-12T22:05:22.374Z,97567.90
2018-04-12T22:07:51.827Z,97568.45
2018-04-12T22:10:20.529Z,97570.81
2018-04-12T22:12:52.539Z,97569.66
2018-04-12T22:15:22.133Z,97565.62
2018-04-12T22:17:50.585Z,97577.20
2018-04-12T22:20:19.704Z,97579.36
2018-04-12T22:22:54.009Z,97578.64
2018-04-12T22:25:22.978Z,97579.70
2018-04-12T22:27:52.222Z,97585.96
2018-04-12T22:30:22.799Z,97589.36
2018-04-12T22:32:53.273Z,97590.97
2018-04-12T22:35:22.798Z,97588.63
2018-04-12T22:37:51.717Z,97589.85
2018-04-12T22:40:20.850Z,97590.18
2018-04-12T22:42:50.200Z,97592.00
2018-04-12T22:45:19.146Z,97594.84
2018-04-12T22:47:48.207Z,97593.58
2018-04-12T22:50:16.972Z,97599.42
2018-04-12T22:52:45.982Z,97596.83
2018-04-12T22:55:15.485Z,97610.92
2018-04-12T22:57:46.617Z,97613.83
2018-04-12T23:00:16.631Z,97607.91
2018-04-12T23:02:44.759Z,97606.52
2018-04-12T23:05:15.020Z,97608.33
2018-04-12T23:07:43.658Z,97609.23
2018-04-12T23:10:13.117Z,97611.39
2018-04-12T23:12:41.514Z,97607.53
2018-04-12T23:15:10.553Z,97607.09
2018-04-12T23:17:38.959Z,97607.47
2018-04-12T23:20:08.007Z,97609.73
2018-04-12T23:22:37.573Z,97603.28
2018-04-12T23:25:06.698Z,97606.70
2018-04-12T23:27:35.167Z,97604.16
2018-04-12T23:30:03.531Z,97604.28
2018-04-12T23:32:33.024Z,97605.36
2018-04-12T23:35:01.362Z,97609.44
2018-04-12T23:37:30.753Z,97612.11
2018-04-12T23:39:59.181Z,97613.20
2018-04-12T23:42:27.526Z,97615.34
2018-04-12T23:44:56.645Z,97620.97
2018-04-12T23:47:25.410Z,97617.30
2018-04-12T23:49:55.359Z,97621.55
2018-04-12T23:52:24.690Z,97618.68
2018-04-12T23:54:53.106Z,97618.22
2018-04-12T23:57:22.690Z,97622.76
2018-04-12T23:59:51.839Z,97622.24
